Time;durP1;ratioP1;P1;durP2;ratioP2;P2;SDS_P1;SDS_P2;PMS_P1;PMS_P2;Temp;Humidity;BMP_temperature;BMP_pressure;BME280_temperature;BME280_humidity;BME280_pressure;Samples;Min_cycle;Max_cycle;Signal;HPM_P1;HPM_P2
2023/01/08 11:41:04;;;;;;;1.60;0.80;;;;;;;7.99;84.55;95676.47;2090489;28;20584;-58
2023/01/08 11:42:37;;;;;;;1.65;0.98;;;;;;;8.14;84.11;95677.47;2086436;28;20251;-58
2023/01/08 12:04:43;;;;;;;1.85;0.82;;;;;;;7.96;84.16;95640.25;2119022;27;20556;-56
2023/01/08 12:06:26;;;;;;;1.20;0.80;;;;;;;8.06;83.65;95635.41;2112711;28;20207;-59
2023/01/08 12:07:58;;;;;;;1.08;0.70;;;;;;;8.03;83.09;95635.56;2085000;28;20254;-58
2023/01/08 13:32:46;;;;;;;1.15;0.60;;;;;;;8.63;80.00;95558.78;2084920;28;20559;-56
2023/01/08 13:33:51;;;;;;;1.80;0.60;;;;;;;8.53;79.23;95552.41;2082857;28;20207;-58
2023/01/08 13:35:13;;;;;;;1.10;0.60;;;;;;;9.17;77.47;95548.00;2082236;28;20326;-59
2023/01/08 13:36:22;;;;;;;1.10;0.60;;;;;;;9.77;75.38;95544.53;2081186;28;20294;-58
2023/01/08 13:37:24;;;;;;;1.33;0.80;;;;;;;10.01;74.23;95535.38;2073104;28;20235;-58
2023/01/08 13:38:28;;;;;;;1.45;0.57;;;;;;;9.95;74.20;95553.06;2071586;28;20255;-58
2023/01/08 13:56:48;;;;;;;2.40;1.10;;;;;;;8.13;82.44;95537.13;2080940;28;21058;-58
2023/01/08 13:57:54;;;;;;;1.98;1.00;;;;;;;8.33;82.13;95542.09;2073372;28;20200;-58
2023/01/08 13:58:56;;;;;;;1.27;0.80;;;;;;;8.43;81.21;95520.78;2073096;28;20285;-59
2023/01/08 13:59:58;;;;;;;1.70;1.00;;;;;;;8.70;80.19;95504.63;2072855;28;20201;-58
2023/01/08 14:01:01;;;;;;;1.80;0.90;;;;;;;8.78;79.65;95512.88;2075076;28;20201;-59
2023/01/08 14:02:20;;;;;;;1.42;1.08;;;;;;;9.13;78.61;95516.09;2074446;28;20232;-58
2023/01/08 14:03:50;;;;;;;3.70;2.30;;;;;;;9.46;77.43;95509.03;2081910;27;20557;-56
2023/01/08 14:04:53;;;;;;;4.72;1.10;;;;;;;10.34;75.13;95516.00;2081565;28;20847;-56
2023/01/08 14:06:18;;;;;;;2.33;0.95;;;;;;;10.46;73.85;95523.06;2076000;28;20194;-56
2023/01/08 14:07:20;;;;;;;1.23;0.75;;;;;;;10.73;72.40;95519.69;2068607;28;20293;-58
2023/01/08 14:08:23;;;;;;;4.55;0.98;;;;;;;10.67;72.25;95507.03;2069035;28;20201;-58
2023/01/08 14:09:24;;;;;;;1.95;1.17;;;;;;;10.23;73.83;95514.03;2071926;28;21041;-58
2023/01/08 14:10:28;;;;;;;1.67;1.00;;;;;;;9.77;74.79;95512.44;2070993;28;20229;-58
2023/01/08 14:11:38;;;;;;;2.88;1.20;;;;;;;9.47;76.19;95511.53;2072527;28;20608;-58
2023/01/08 14:20:53;;;;;;;1.50;0.90;;;;;;;8.33;80.86;95497.88;2108238;27;20560;-58
2023/01/08 14:22:00;;;;;;;2.40;1.50;;;;;;;8.38;80.66;95509.81;2099069;28;20227;-59
2023/01/08 14:23:10;;;;;;;2.95;1.65;;;;;;;8.38;80.84;95520.22;2097341;28;20210;-58
2023/01/08 14:24:15;;;;;;;1.45;0.88;;;;;;;8.40;80.37;95510.56;2098047;28;20247;-58
2023/01/08 14:25:18;;;;;;;2.75;1.42;;;;;;;8.41;80.27;95494.88;2098636;28;20199;-58
2023/01/08 14:26:31;;;;;;;1.75;1.05;;;;;;;8.32;80.31;95505.78;2099277;28;20244;-58
2023/01/08 14:27:33;;;;;;;1.75;1.00;;;;;;;8.31;80.94;95501.50;2107569;28;20211;-58
2023/01/08 14:28:35;;;;;;;1.58;0.90;;;;;;;8.32;80.93;95504.00;2104821;28;20198;-58
2023/01/08 14:29:44;;;;;;;2.75;1.13;;;;;;;8.34;80.48;95509.13;2099599;28;20202;-58
2023/01/08 14:30:49;;;;;;;1.55;0.90;;;;;;;8.36;80.55;95498.66;2098831;28;20230;-58
2023/01/08 14:39:29;;;;;;;3.95;0.90;;;;;;;8.39;81.19;95499.31;2090510;28;20560;-56
2023/01/08 14:40:35;;;;;;;2.83;1.10;;;;;;;8.38;81.21;95496.78;2090479;28;20196;-57
2023/01/08 14:43:06;;;;;;;1.65;1.00;;;;;;;8.86;78.99;95499.41;2078865;28;20201;-58
2023/01/08 14:44:12;;;;;;;1.00;0.63;;;;;;;8.77;78.81;95490.34;2081714;28;20665;-58
2023/01/08 14:45:22;;;;;;;1.77;0.90;;;;;;;9.23;77.35;95492.97;2082271;28;20231;-58
2023/01/08 14:46:28;;;;;;;1.88;0.90;;;;;;;9.48;76.19;95486.31;2079764;28;20197;-58
2023/01/08 14:47:35;;;;;;;2.28;1.00;;;;;;;9.41;75.85;95485.03;2073582;28;20198;-58
2023/01/08 14:48:42;;;;;;;1.73;1.08;;;;;;;9.08;76.92;95483.44;2074399;28;20200;-58
2023/01/08 14:49:50;;;;;;;1.30;0.80;;;;;;;8.87;77.96;95477.66;2074087;28;20198;-58
2023/01/08 14:51:15;;;;;;;1.33;0.73;;;;;;;8.69;78.71;95496.00;2073360;28;20209;-58
2023/01/08 14:52:17;;;;;;;2.05;1.05;;;;;;;8.91;78.29;95485.22;2073185;28;20214;-58
2023/01/08 14:53:43;;;;;;;3.83;1.88;;;;;;;8.68;79.09;95488.28;2074855;28;20189;-58
2023/01/08 14:54:48;;;;;;;1.95;1.10;;;;;;;8.43;79.70;95479.16;2071848;28;20718;-58
2023/01/08 14:58:23;;;;;;;4.05;1.52;;;;;;;8.45;80.04;95461.72;2084088;28;20564;-56
2023/01/08 14:59:31;;;;;;;5.45;2.13;;;;;;;8.59;79.80;95485.25;2082563;28;20204;-56
2023/01/08 15:00:36;;;;;;;1.67;0.80;;;;;;;8.50;79.69;95481.38;2082567;28;20713;-56
2023/01/08 15:01:38;;;;;;;1.63;1.08;;;;;;;8.53;79.67;95469.13;2076158;28;20236;-56
2023/01/08 15:02:40;;;;;;;2.67;1.25;;;;;;;8.55;79.29;95473.34;2072415;28;20200;-56
